Latest Coastal Weather Observations for McCluer Island

IDD60701

Issued at 4:41 am CST Thursday 28 July 2016 (issued every 10 minutes, with the page automatically refreshed every 10 minutes)

About coastal observations | Map of coastal stations | Coastal observations for NT | Marine services | Other Formats
Station Details ID: 014274 Name: MCCLUER ISLAND Lat: -11.05 Lon: 132.98 Height: 1.4 m
Data from the previous 72 hours. | See also: Recent months at McCluer Island
Date/Time
CST
Temp
°C
Wind Pressure Rain since
9am
mm
Weather Cloud Vis
km
Sea
Height
m
Swell
Dir  Spd
kts
Gust
kts
hPa Trend Height
m
Period
s
Dir
28/04:30am 24.3 ESE 21 27 1013.1 - 0.0 - - - - - - -
28/04:00am 24.4 SE 16 23 1013.2 - 0.0 - - - - - - -
28/03:30am 24.2 SE 15 20 1013.4 - 0.0 - - - - - - -
28/03:00am 24.6 SE 13 19 1013.2 - 0.0 - - - - - - -
28/02:30am 25.0 SE 16 21 1013.4 - 0.0 - - - - - - -
28/02:00am 25.2 SE 16 22 1013.6 - 0.0 - - - - - - -
28/01:30am 25.5 ESE 19 26 1013.8 - 0.0 - - - - - - -
28/01:00am 25.5 ESE 23 27 1013.9 - 0.0 - - - - - - -
28/12:30am 25.7 ESE 25 30 1013.9 - 0.0 - - - - - - -
28/12:00am 26.1 ESE 25 30 1013.7 - 0.0 - - - - - - -
 
Date/Time
CST
Temp
°C
Wind Pressure Rain since
9am
mm
Weather Cloud Vis
km
Sea
Height
m
Swell
Dir  Spd
kts
Gust
kts
hPa Trend Height
m
Period
s
Dir
27/11:30pm 26.4 ESE 25 30 1013.6 - 0.0 - - - - - - -
27/11:00pm 26.5 E 25 31 1013.5 - 0.0 - - - - - - -
27/10:30pm 26.6 E 24 29 1013.5 - 0.0 - - - - - - -
27/10:00pm 26.8 E 23 27 1013.5 - 0.0 - - - - - - -
27/09:30pm 26.8 E 22 26 1013.2 - 0.0 - - - - - - -
27/09:00pm 26.7 E 21 26 1013.2 - 0.0 - - - - - - -
27/08:30pm 26.8 E 21 24 1013.0 - 0.0 - - - - - - -
27/08:00pm 26.5 E 20 25 1012.7 - 0.0 - - - - - - -
27/07:30pm 26.9 E 20 23 1012.4 - 0.0 - - - - - - -
27/07:00pm 26.8 E 19 23 1012.2 - 0.0 - - - - - - -
27/06:30pm 26.7 E 18 22 1011.8 - 0.0 - - - - - - -
27/06:00pm 27.0 E 19 23 1011.5 - 0.0 - - - - - - -
27/05:30pm 26.6 E 18 20 1011.5 - 0.0 - - - - - - -
27/05:00pm 26.8 E 19 22 1011.3 - 0.0 - - - - - - -
27/04:30pm 27.2 E 19 23 1011.3 - 0.0 - - - - - - -
27/04:00pm 27.6 E 20 22 1011.4 - 0.0 - - - - - - -
27/03:30pm 27.2 E 21 24 1011.5 - 0.0 - - - - - - -
27/03:00pm 27.0 ESE 22 25 1011.5 - 0.0 - - - - - - -
27/02:30pm 26.9 ESE 22 26 1011.8 - 0.0 - - - - - - -
27/02:00pm 26.9 ESE 24 28 1012.0 - 0.0 - - - - - - -
27/01:30pm 27.6 ESE 24 29 1012.3 - 0.0 - - - - - - -
27/01:00pm 27.9 ESE 24 28 1012.7 - 0.0 - - - - - - -
27/12:30pm 27.7 ESE 22 27 1013.0 - 0.0 - - - - - - -
27/12:00pm 27.9 ESE 19 26 1013.4 - 0.0 - - - - - - -
27/11:30am 27.5 ESE 20 25 1013.7 - 0.0 - - - - - - -
27/11:00am 27.6 ESE 21 26 1013.9 - 0.0 - - - - - - -
27/10:30am 27.5 SE 19 24 1013.9 - 0.0 - - - - - - -
27/10:00am 27.1 ESE 19 24 1014.1 - 0.0 - - - - - - -
27/09:30am 26.5 ESE 20 23 1014.1 - 0.0 - - - - - - -
27/09:00am 26.7 ESE 16 20 1014.1 - 0.0 - - - - - - -
27/08:30am 26.4 SE 16 20 1013.9 - 0.0 - - - - - - -
27/08:00am 25.8 SE 12 18 1013.6 - 0.0 - - - - - - -
27/07:30am 24.7 SE 11 15 1013.2 - 0.0 - - - - - - -
27/07:00am 24.5 SE 11 16 1013.0 - 0.0 - - - - - - -
27/06:30am 25.1 ESE 16 20 1012.7 - 0.0 - - - - - - -
27/06:00am 25.0 ESE 14 19 1012.4 - 0.0 - - - - - - -
27/05:30am 25.0 ESE 15 19 1012.4 - 0.0 - - - - - - -
27/05:00am 25.1 ESE 14 19 1012.3 - 0.0 - - - - - - -
27/04:30am 25.1 ESE 17 23 1012.1 - 0.0 - - - - - - -
27/04:00am 25.1 ESE 19 23 1012.0 - 0.0 - - - - - - -
27/03:30am 25.7 ESE 20 25 1012.1 - 0.0 - - - - - - -
27/03:00am 25.7 ESE 20 25 1012.4 - 0.0 - - - - - - -
27/02:30am 25.7 ESE 20 26 1012.5 - 0.0 - - - - - - -
27/02:00am 25.9 ESE 20 25 1012.5 - 0.0 - - - - - - -
27/01:30am 26.3 ESE 24 28 1012.4 - 0.0 - - - - - - -
27/01:00am 26.8 E 22 26 1012.7 - 0.0 - - - - - - -
27/12:30am 26.7 E 19 24 1012.8 - 0.0 - - - - - - -
27/12:00am 26.8 E 18 21 1012.5 - 0.0 - - - - - - -
 
Date/Time
CST
Temp
°C
Wind Pressure Rain since
9am
mm
Weather Cloud Vis
km
Sea
Height
m
Swell
Dir  Spd
kts
Gust
kts
hPa Trend Height
m
Period
s
Dir
26/11:30pm 26.8 E 17 19 1012.5 - 0.0 - - - - - - -
26/11:00pm 26.9 E 17 20 1012.6 - 0.0 - - - - - - -
26/10:30pm 26.8 E 16 19 1012.5 - 0.0 - - - - - - -
26/10:00pm 26.9 E 14 17 1012.4 - 0.0 - - - - - - -
26/09:30pm 26.7 E 15 19 1012.2 - 0.0 - - - - - - -
26/09:00pm 26.5 ENE 15 17 1012.0 - 0.0 - - - - - - -
26/08:30pm 26.9 ENE 15 17 1011.8 - 0.0 - - - - - - -
26/08:00pm 26.5 ENE 13 16 1011.6 - 0.0 - - - - - - -
26/07:30pm 26.4 ENE 14 17 1011.1 - 0.0 - - - - - - -
26/07:00pm 26.8 ENE 16 18 1010.8 - 0.0 - - - - - - -
26/06:30pm 26.6 E 16 18 1010.5 - 0.0 - - - - - - -
26/06:00pm 26.7 E 15 18 1010.5 - 0.0 - - - - - - -
26/05:30pm 26.8 E 16 18 1010.5 - 0.0 - - - - - - -
26/05:00pm 26.7 E 16 19 1010.4 - 0.0 - - - - - - -
26/04:30pm 26.8 E 18 21 1010.3 - 0.0 - - - - - - -
26/04:00pm 27.1 E 19 21 1010.4 - 0.0 - - - - - - -
26/03:30pm 26.9 E 20 25 1010.4 - 0.0 - - - - - - -
26/03:00pm 26.8 E 19 22 1010.6 - 0.0 - - - - - - -
26/02:30pm 26.6 E 20 24 1011.1 - 0.0 - - - - - - -
26/02:00pm 26.9 ESE 18 21 1011.5 - 0.0 - - - - - - -
26/01:30pm 27.0 ESE 19 22 1011.8 - 0.0 - - - - - - -
26/01:00pm 26.4 ESE 19 23 1012.1 - 0.0 - - - - - - -
26/12:30pm 26.4 ESE 19 23 1012.5 - 0.0 - - - - - - -
26/12:00pm 26.5 ESE 19 22 1012.8 - 0.0 - - - - - - -
26/11:30am 26.3 ESE 19 21 1013.2 - 0.0 - - - - - - -
26/11:00am 26.3 ESE 19 23 1013.4 - 0.0 - - - - - - -
26/10:30am 26.3 ESE 20 24 1013.4 - 0.0 - - - - - - -
26/10:00am 27.0 ESE 16 21 1013.5 - 0.0 - - - - - - -
26/09:30am 27.2 ESE 14 19 1013.5 - 0.0 - - - - - - -
26/09:00am 27.0 SE 14 18 1013.2 - 0.0 - - - - - - -
26/08:30am 26.7 SE 12 17 1013.2 - 0.0 - - - - - - -
26/08:00am 26.1 ESE 12 16 1012.9 - 0.0 - - - - - - -
26/07:30am 25.4 SE 10 15 1012.6 - 0.0 - - - - - - -
26/07:00am 24.7 ESE 11 13 1012.3 - 0.0 - - - - - - -
26/06:30am 24.6 ESE 12 16 1012.1 - 0.0 - - - - - - -
26/06:00am 25.3 ESE 14 18 1011.8 - 0.0 - - - - - - -
26/05:30am 24.9 ESE 11 16 1011.8 - 0.0 - - - - - - -
26/05:00am 25.0 SE 12 16 1011.8 - 0.0 - - - - - - -
26/04:30am 25.3 SE 15 20 1011.6 - 0.0 - - - - - - -
26/04:00am 25.5 SE 15 20 1011.6 - 0.0 - - - - - - -
26/03:30am 25.8 ESE 18 24 1011.7 - 0.0 - - - - - - -
26/03:00am 25.7 ESE 19 24 1011.7 - 0.0 - - - - - - -
26/02:30am 25.6 ESE 19 23 1011.9 - 0.0 - - - - - - -
26/02:00am 25.9 ESE 21 27 1012.0 - 0.0 - - - - - - -
26/01:30am 26.3 ESE 17 22 1012.1 - 0.0 - - - - - - -
26/01:00am 26.5 ESE 19 23 1012.2 - 0.0 - - - - - - -
26/12:30am 26.7 ESE 22 26 1012.2 - 0.0 - - - - - - -
26/12:00am 27.0 E 18 22 1012.2 - 0.0 - - - - - - -
 
Date/Time
CST
Temp
°C
Wind Pressure Rain since
9am
mm
Weather Cloud Vis
km
Sea
Height
m
Swell
Dir  Spd
kts
Gust
kts
hPa Trend Height
m
Period
s
Dir
25/11:30pm 27.3 E 16 19 1012.2 - 0.0 - - - - - - -
25/11:00pm 27.0 E 16 18 1012.2 - 0.0 - - - - - - -
25/10:30pm 26.9 E 15 17 1012.2 - 0.0 - - - - - - -
25/10:00pm 26.8 E 16 18 1012.0 - 0.0 - - - - - - -
25/09:30pm 27.0 ENE 14 17 1012.0 - 0.0 - - - - - - -
25/09:00pm 26.9 E 15 18 1011.7 - 0.0 - - - - - - -
25/08:30pm 27.0 E 16 18 1011.4 - 0.0 - - - - - - -
25/08:00pm 26.8 ENE 15 19 1011.1 - 0.0 - - - - - - -
25/07:30pm 26.7 E 14 16 1010.7 - 0.0 - - - - - - -
25/07:00pm 26.6 ENE 15 18 1010.4 - 0.0 - - - - - - -
25/06:30pm 26.6 ENE 14 16 1010.2 - 0.0 - - - - - - -
25/06:00pm 26.8 E 14 17 1010.1 - 0.0 - - - - - - -
25/05:30pm 27.0 E 14 15 1010.2 - 0.0 - - - - - - -
25/05:00pm 27.5 E 13 15 1010.1 - 0.0 - - - - - - -
25/04:30pm 27.2 E 13 14 1010.2 - 0.0 - - - - - - -
25/04:00pm 27.3 E 14 16 1010.4 - 0.0 - - - - - - -
25/03:30pm 27.2 ESE 15 18 1010.7 - 0.0 - - - - - - -
25/03:00pm 27.1 E 15 18 1011.0 - 0.0 - - - - - - -
25/02:30pm 27.2 ESE 16 18 1011.4 - 0.0 - - - - - - -
25/02:00pm 27.2 ESE 15 17 1011.6 - 0.0 - - - - - - -
25/01:30pm 27.4 ESE 15 17 1012.0 - 0.0 - - - - - - -
25/01:00pm 27.1 ESE 15 17 1012.1 - 0.0 - - - - - - -
25/12:30pm 27.2 ESE 15 18 1012.4 - 0.0 - - - - - - -
25/12:00pm 27.2 ESE 14 18 1012.7 - 0.0 - - - - - - -
25/11:30am 28.0 ESE 12 16 1012.8 - 0.0 - - - - - - -
25/11:00am 27.8 ESE 12 16 1013.0 - 0.0 - - - - - - -
25/10:30am 27.5 ESE 15 19 1012.9 - 0.0 - - - - - - -
25/10:00am 27.3 ESE 14 17 1012.9 - 0.0 - - - - - - -
25/09:30am 27.0 ESE 14 18 1013.0 - 0.0 - - - - - - -
25/09:00am 27.2 ESE 16 19 1012.7 - 0.0 - - - - - - -
25/08:30am 26.6 E 13 16 1012.6 - 0.0 - - - - - - -
25/08:00am 25.7 ESE 14 17 1012.4 - 0.0 - - - - - - -
25/07:30am 25.8 ESE 16 18 1012.2 - 0.0 - - - - - - -
25/07:00am 25.6 ESE 16 19 1011.9 - 0.0 - - - - - - -
25/06:30am 25.4 ESE 16 18 1011.8 - 0.0 - - - - - - -
25/06:00am 25.1 ESE 13 17 1011.6 - 0.0 - - - - - - -
25/05:30am 25.3 ESE 12 16 1011.2 - 0.0 - - - - - - -
25/05:00am 25.9 ESE 16 19 1010.9 - 0.0 - - - - - - -

Other Formats:

Comma delimited format used in spreadsheet applications
http://www.bom.gov.au/fwo/IDD60701/IDD60701.94135.axf

JavaScript Object Notation format (JSON) in row-major order
http://www.bom.gov.au/fwo/IDD60701/IDD60701.94135.json